Pismo Beach, California
Current Conditions -  °F | °C
As of 10:56 PM on Tuesday 21 Oct 2014 (Local Time) from KSBP Reporting Station
Clear Clear  
Wind Chill: 62°   Ceiling: Unl
Heat Index: 62°   Visibility: 10mi
Dew Point: 44°   Wind: 3mph
Humidity: 52%   Direction: 350°N
Pressure: 29.96"   Gusts: NA
Location:  35.16°N, 120.66°W
Report Text: KSBP 220556Z AUTO 35003KT 10SM CLR 17/07 A2996 RMK AO2 SLP143 T01670067 10217 20150 50007
Loading
Personal Weather Stations






























Interactive Weather Map New forecast layout! Learn more

10-Day Weather Forecast

Advertisements
Track Severe Weather on mobile